sensor_id;sensor_type;location;lat;lon;timestamp;P1;durP1;ratioP1;P2;durP2;ratioP2
72284;SDS011;60220;53.552;10.092;2023-03-01T00:01:26;31.55;;;15.85;;
72284;SDS011;60220;53.552;10.092;2023-03-01T00:03:54;33.95;;;16.05;;
72284;SDS011;60220;53.552;10.092;2023-03-01T00:06:22;37.25;;;15.48;;
72284;SDS011;60220;53.552;10.092;2023-03-01T00:08:49;37.00;;;14.48;;
72284;SDS011;60220;53.552;10.092;2023-03-01T00:11:19;38.42;;;15.18;;
72284;SDS011;60220;53.552;10.092;2023-03-01T00:13:47;28.33;;;14.98;;
72284;SDS011;60220;53.552;10.092;2023-03-01T00:16:16;37.13;;;15.32;;
72284;SDS011;60220;53.552;10.092;2023-03-01T00:18:44;33.28;;;16.30;;
72284;SDS011;60220;53.552;10.092;2023-03-01T00:21:12;34.47;;;16.05;;
72284;SDS011;60220;53.552;10.092;2023-03-01T00:23:38;35.50;;;15.55;;
72284;SDS011;60220;53.552;10.092;2023-03-01T00:26:06;29.42;;;15.43;;
72284;SDS011;60220;53.552;10.092;2023-03-01T00:28:35;29.10;;;15.27;;
72284;SDS011;60220;53.552;10.092;2023-03-01T00:31:03;29.75;;;14.98;;
72284;SDS011;60220;53.552;10.092;2023-03-01T00:33:30;27.50;;;13.80;;
72284;SDS011;60220;53.552;10.092;2023-03-01T00:35:57;29.98;;;13.82;;
72284;SDS011;60220;53.552;10.092;2023-03-01T00:38:24;24.05;;;12.75;;
72284;SDS011;60220;53.552;10.092;2023-03-01T00:40:51;29.13;;;14.07;;
72284;SDS011;60220;53.552;10.092;2023-03-01T00:43:18;30.35;;;14.88;;
72284;SDS011;60220;53.552;10.092;2023-03-01T00:45:48;25.70;;;13.63;;
72284;SDS011;60220;53.552;10.092;2023-03-01T00:48:15;26.15;;;13.45;;
72284;SDS011;60220;53.552;10.092;2023-03-01T00:50:41;27.38;;;14.05;;
72284;SDS011;60220;53.552;10.092;2023-03-01T00:53:08;27.42;;;14.15;;
72284;SDS011;60220;53.552;10.092;2023-03-01T00:55:35;27.85;;;12.80;;
72284;SDS011;60220;53.552;10.092;2023-03-01T00:58:02;22.50;;;12.25;;
72284;SDS011;60220;53.552;10.092;2023-03-01T01:00:28;26.33;;;12.48;;
72284;SDS011;60220;53.552;10.092;2023-03-01T01:02:56;25.17;;;12.95;;
72284;SDS011;60220;53.552;10.092;2023-03-01T01:05:25;25.48;;;12.90;;
72284;SDS011;60220;53.552;10.092;2023-03-01T01:07:52;23.30;;;11.93;;
72284;SDS011;60220;53.552;10.092;2023-03-01T01:10:21;22.30;;;11.95;;
72284;SDS011;60220;53.552;10.092;2023-03-01T01:12:48;25.73;;;12.88;;
72284;SDS011;60220;53.552;10.092;2023-03-01T01:15:14;27.05;;;12.25;;
72284;SDS011;60220;53.552;10.092;2023-03-01T01:17:41;20.48;;;11.88;;
72284;SDS011;60220;53.552;10.092;2023-03-01T01:20:10;22.05;;;11.80;;
72284;SDS011;60220;53.552;10.092;2023-03-01T01:22:38;21.67;;;10.85;;
72284;SDS011;60220;53.552;10.092;2023-03-01T01:25:05;26.52;;;12.55;;
72284;SDS011;60220;53.552;10.092;2023-03-01T01:27:32;18.05;;;10.77;;
72284;SDS011;60220;53.552;10.092;2023-03-01T01:29:58;21.45;;;10.88;;
72284;SDS011;60220;53.552;10.092;2023-03-01T01:32:25;23.58;;;10.38;;
72284;SDS011;60220;53.552;10.092;2023-03-01T01:34:52;21.42;;;10.70;;
72284;SDS011;60220;53.552;10.092;2023-03-01T01:37:20;19.25;;;10.73;;
72284;SDS011;60220;53.552;10.092;2023-03-01T01:39:49;22.42;;;10.50;;
72284;SDS011;60220;53.552;10.092;2023-03-01T01:42:17;23.90;;;11.45;;
72284;SDS011;60220;53.552;10.092;2023-03-01T01:44:45;28.98;;;11.10;;
72284;SDS011;60220;53.552;10.092;2023-03-01T01:47:13;20.60;;;10.05;;
72284;SDS011;60220;53.552;10.092;2023-03-01T01:49:42;27.45;;;10.52;;
72284;SDS011;60220;53.552;10.092;2023-03-01T01:52:13;20.00;;;10.40;;
72284;SDS011;60220;53.552;10.092;2023-03-01T01:54:50;18.58;;;9.57;;
72284;SDS011;60220;53.552;10.092;2023-03-01T01:57:21;17.67;;;10.25;;
72284;SDS011;60220;53.552;10.092;2023-03-01T02:02:23;16.98;;;9.70;;
72284;SDS011;60220;53.552;10.092;2023-03-01T02:04:52;20.80;;;10.90;;
72284;SDS011;60220;53.552;10.092;2023-03-01T02:07:28;22.02;;;10.48;;
72284;SDS011;60220;53.552;10.092;2023-03-01T02:09:57;21.73;;;9.88;;
72284;SDS011;60220;53.552;10.092;2023-03-01T02:12:24;17.83;;;9.55;;
72284;SDS011;60220;53.552;10.092;2023-03-01T02:14:54;26.55;;;9.85;;
72284;SDS011;60220;53.552;10.092;2023-03-01T02:17:23;19.67;;;10.23;;
72284;SDS011;60220;53.552;10.092;2023-03-01T02:19:53;21.52;;;9.20;;
72284;SDS011;60220;53.552;10.092;2023-03-01T02:22:27;19.80;;;10.35;;
72284;SDS011;60220;53.552;10.092;2023-03-01T02:25:00;17.73;;;9.85;;
72284;SDS011;60220;53.552;10.092;2023-03-01T02:27:38;18.35;;;8.88;;
72284;SDS011;60220;53.552;10.092;2023-03-01T02:30:13;21.13;;;9.95;;
72284;SDS011;60220;53.552;10.092;2023-03-01T02:32:40;17.35;;;9.30;;
72284;SDS011;60220;53.552;10.092;2023-03-01T02:35:09;12.27;;;8.27;;
72284;SDS011;60220;53.552;10.092;2023-03-01T02:37:39;17.13;;;9.15;;
72284;SDS011;60220;53.552;10.092;2023-03-01T02:40:08;15.30;;;8.00;;
72284;SDS011;60220;53.552;10.092;2023-03-01T02:42:41;19.03;;;9.57;;
72284;SDS011;60220;53.552;10.092;2023-03-01T02:45:16;16.13;;;9.23;;
72284;SDS011;60220;53.552;10.092;2023-03-01T02:47:43;18.20;;;9.05;;
72284;SDS011;60220;53.552;10.092;2023-03-01T02:50:12;18.05;;;9.50;;
72284;SDS011;60220;53.552;10.092;2023-03-01T02:52:53;16.73;;;8.55;;
72284;SDS011;60220;53.552;10.092;2023-03-01T02:55:27;18.80;;;9.57;;
72284;SDS011;60220;53.552;10.092;2023-03-01T02:57:54;17.40;;;9.07;;
72284;SDS011;60220;53.552;10.092;2023-03-01T03:00:24;19.05;;;10.07;;
72284;SDS011;60220;53.552;10.092;2023-03-01T03:02:56;15.65;;;8.38;;
72284;SDS011;60220;53.552;10.092;2023-03-01T03:05:23;15.55;;;8.38;;
72284;SDS011;60220;53.552;10.092;2023-03-01T03:07:52;16.35;;;8.98;;
72284;SDS011;60220;53.552;10.092;2023-03-01T03:10:19;16.55;;;8.05;;
72284;SDS011;60220;53.552;10.092;2023-03-01T03:12:50;17.13;;;8.77;;
72284;SDS011;60220;53.552;10.092;2023-03-01T03:15:21;16.20;;;8.10;;
72284;SDS011;60220;53.552;10.092;2023-03-01T03:17:52;17.85;;;8.45;;
72284;SDS011;60220;53.552;10.092;2023-03-01T03:20:20;19.17;;;8.10;;
72284;SDS011;60220;53.552;10.092;2023-03-01T03:22:50;16.58;;;8.15;;
72284;SDS011;60220;53.552;10.092;2023-03-01T03:25:18;14.23;;;7.78;;
72284;SDS011;60220;53.552;10.092;2023-03-01T03:27:48;16.80;;;8.43;;
72284;SDS011;60220;53.552;10.092;2023-03-01T03:30:22;17.63;;;8.13;;
72284;SDS011;60220;53.552;10.092;2023-03-01T03:32:50;15.00;;;8.65;;
72284;SDS011;60220;53.552;10.092;2023-03-01T03:35:20;20.92;;;8.73;;
72284;SDS011;60220;53.552;10.092;2023-03-01T03:37:47;16.77;;;8.43;;
72284;SDS011;60220;53.552;10.092;2023-03-01T03:40:33;15.83;;;8.30;;
72284;SDS011;60220;53.552;10.092;2023-03-01T03:43:01;15.38;;;8.52;;
72284;SDS011;60220;53.552;10.092;2023-03-01T03:45:28;14.52;;;7.63;;
72284;SDS011;60220;53.552;10.092;2023-03-01T03:47:54;18.70;;;8.27;;
72284;SDS011;60220;53.552;10.092;2023-03-01T03:50:22;33.75;;;7.43;;
72284;SDS011;60220;53.552;10.092;2023-03-01T03:52:49;13.43;;;7.90;;
72284;SDS011;60220;53.552;10.092;2023-03-01T03:55:15;13.45;;;8.00;;
72284;SDS011;60220;53.552;10.092;2023-03-01T03:57:45;18.48;;;7.75;;
72284;SDS011;60220;53.552;10.092;2023-03-01T04:00:16;13.70;;;7.43;;
72284;SDS011;60220;53.552;10.092;2023-03-01T04:02:47;13.43;;;7.50;;
72284;SDS011;60220;53.552;10.092;2023-03-01T04:05:15;13.88;;;8.55;;
72284;SDS011;60220;53.552;10.092;2023-03-01T04:07:44;14.82;;;7.03;;
72284;SDS011;60220;53.552;10.092;2023-03-01T04:10:12;11.23;;;7.15;;
72284;SDS011;60220;53.552;10.092;2023-03-01T04:12:41;14.13;;;7.80;;
72284;SDS011;60220;53.552;10.092;2023-03-01T04:15:09;12.25;;;6.95;;
72284;SDS011;60220;53.552;10.092;2023-03-01T04:17:39;15.55;;;7.35;;
72284;SDS011;60220;53.552;10.092;2023-03-01T04:20:07;12.25;;;7.60;;
72284;SDS011;60220;53.552;10.092;2023-03-01T04:22:35;13.43;;;6.80;;
72284;SDS011;60220;53.552;10.092;2023-03-01T04:25:05;17.85;;;7.82;;
72284;SDS011;60220;53.552;10.092;2023-03-01T04:27:33;16.58;;;8.73;;
72284;SDS011;60220;53.552;10.092;2023-03-01T04:30:00;13.05;;;7.57;;
72284;SDS011;60220;53.552;10.092;2023-03-01T04:32:27;13.48;;;7.13;;
72284;SDS011;60220;53.552;10.092;2023-03-01T04:34:53;13.48;;;7.32;;
72284;SDS011;60220;53.552;10.092;2023-03-01T04:37:20;20.33;;;7.93;;
72284;SDS011;60220;53.552;10.092;2023-03-01T04:39:49;17.33;;;7.80;;
72284;SDS011;60220;53.552;10.092;2023-03-01T04:42:17;19.73;;;9.05;;
72284;SDS011;60220;53.552;10.092;2023-03-01T04:44:45;15.88;;;7.50;;
72284;SDS011;60220;53.552;10.092;2023-03-01T04:47:12;15.30;;;7.50;;
72284;SDS011;60220;53.552;10.092;2023-03-01T04:49:39;15.10;;;7.53;;
72284;SDS011;60220;53.552;10.092;2023-03-01T04:52:05;17.92;;;8.23;;
72284;SDS011;60220;53.552;10.092;2023-03-01T04:54:32;17.35;;;7.60;;
72284;SDS011;60220;53.552;10.092;2023-03-01T04:57:02;11.88;;;6.95;;
72284;SDS011;60220;53.552;10.092;2023-03-01T04:59:30;14.68;;;7.57;;
72284;SDS011;60220;53.552;10.092;2023-03-01T05:01:57;15.18;;;8.70;;
72284;SDS011;60220;53.552;10.092;2023-03-01T05:04:25;43.50;;;19.58;;
72284;SDS011;60220;53.552;10.092;2023-03-01T05:06:52;14.90;;;8.75;;
72284;SDS011;60220;53.552;10.092;2023-03-01T05:09:21;15.30;;;7.22;;
72284;SDS011;60220;53.552;10.092;2023-03-01T05:11:47;17.10;;;6.80;;
72284;SDS011;60220;53.552;10.092;2023-03-01T05:14:15;11.07;;;6.60;;
72284;SDS011;60220;53.552;10.092;2023-03-01T05:16:43;23.20;;;7.30;;
72284;SDS011;60220;53.552;10.092;2023-03-01T05:19:12;28.38;;;11.85;;
72284;SDS011;60220;53.552;10.092;2023-03-01T05:21:42;38.67;;;18.45;;
72284;SDS011;60220;53.552;10.092;2023-03-01T05:24:31;15.43;;;7.32;;
72284;SDS011;60220;53.552;10.092;2023-03-01T05:27:02;17.40;;;7.75;;
72284;SDS011;60220;53.552;10.092;2023-03-01T05:29:30;15.80;;;7.70;;
72284;SDS011;60220;53.552;10.092;2023-03-01T05:32:03;15.60;;;7.13;;
72284;SDS011;60220;53.552;10.092;2023-03-01T05:34:31;24.45;;;7.53;;
72284;SDS011;60220;53.552;10.092;2023-03-01T05:37:00;17.55;;;7.28;;
72284;SDS011;60220;53.552;10.092;2023-03-01T05:39:28;14.95;;;7.32;;
72284;SDS011;60220;53.552;10.092;2023-03-01T05:41:57;19.50;;;7.65;;
72284;SDS011;60220;53.552;10.092;2023-03-01T05:44:25;17.25;;;7.68;;
72284;SDS011;60220;53.552;10.092;2023-03-01T05:46:54;20.65;;;7.75;;
72284;SDS011;60220;53.552;10.092;2023-03-01T05:49:22;15.95;;;7.95;;
72284;SDS011;60220;53.552;10.092;2023-03-01T05:51:51;25.02;;;11.80;;
72284;SDS011;60220;53.552;10.092;2023-03-01T05:54:21;54.03;;;24.45;;
72284;SDS011;60220;53.552;10.092;2023-03-01T05:56:50;21.17;;;9.98;;
72284;SDS011;60220;53.552;10.092;2023-03-01T05:59:17;67.85;;;32.72;;
72284;SDS011;60220;53.552;10.092;2023-03-01T06:01:46;23.98;;;9.45;;
72284;SDS011;60220;53.552;10.092;2023-03-01T06:04:16;15.50;;;7.35;;
72284;SDS011;60220;53.552;10.092;2023-03-01T06:06:44;15.55;;;7.43;;
72284;SDS011;60220;53.552;10.092;2023-03-01T06:09:10;15.55;;;7.93;;
72284;SDS011;60220;53.552;10.092;2023-03-01T06:11:37;18.63;;;7.45;;
72284;SDS011;60220;53.552;10.092;2023-03-01T06:14:05;15.10;;;8.57;;
72284;SDS011;60220;53.552;10.092;2023-03-01T06:16:41;17.92;;;7.65;;
72284;SDS011;60220;53.552;10.092;2023-03-01T06:19:08;25.65;;;12.93;;
72284;SDS011;60220;53.552;10.092;2023-03-01T06:21:34;15.70;;;7.72;;
72284;SDS011;60220;53.552;10.092;2023-03-01T06:24:02;20.38;;;7.78;;
72284;SDS011;60220;53.552;10.092;2023-03-01T06:26:31;9.93;;;5.30;;
72284;SDS011;60220;53.552;10.092;2023-03-01T06:28:57;16.65;;;6.10;;
72284;SDS011;60220;53.552;10.092;2023-03-01T06:31:26;15.13;;;6.45;;
72284;SDS011;60220;53.552;10.092;2023-03-01T06:33:53;12.80;;;6.40;;
72284;SDS011;60220;53.552;10.092;2023-03-01T06:36:20;18.00;;;6.28;;
72284;SDS011;60220;53.552;10.092;2023-03-01T06:38:49;13.10;;;7.13;;
72284;SDS011;60220;53.552;10.092;2023-03-01T06:41:19;12.07;;;6.45;;
72284;SDS011;60220;53.552;10.092;2023-03-01T06:43:46;16.70;;;7.18;;
72284;SDS011;60220;53.552;10.092;2023-03-01T06:46:12;16.58;;;5.97;;
72284;SDS011;60220;53.552;10.092;2023-03-01T06:48:39;10.68;;;6.50;;
72284;SDS011;60220;53.552;10.092;2023-03-01T06:51:06;14.13;;;5.78;;
72284;SDS011;60220;53.552;10.092;2023-03-01T06:53:32;13.25;;;5.95;;
72284;SDS011;60220;53.552;10.092;2023-03-01T06:55:59;23.35;;;6.20;;
72284;SDS011;60220;53.552;10.092;2023-03-01T06:58:29;13.75;;;6.13;;
72284;SDS011;60220;53.552;10.092;2023-03-01T07:00:56;16.88;;;6.15;;
72284;SDS011;60220;53.552;10.092;2023-03-01T07:03:22;17.33;;;6.32;;
72284;SDS011;60220;53.552;10.092;2023-03-01T07:05:49;44.35;;;20.23;;
72284;SDS011;60220;53.552;10.092;2023-03-01T07:08:17;19.45;;;7.70;;
72284;SDS011;60220;53.552;10.092;2023-03-01T07:10:44;19.95;;;11.20;;
72284;SDS011;60220;53.552;10.092;2023-03-01T07:13:11;22.33;;;6.38;;
72284;SDS011;60220;53.552;10.092;2023-03-01T07:15:41;13.02;;;6.30;;
72284;SDS011;60220;53.552;10.092;2023-03-01T07:18:07;16.42;;;6.03;;
72284;SDS011;60220;53.552;10.092;2023-03-01T07:20:34;13.40;;;5.30;;
72284;SDS011;60220;53.552;10.092;2023-03-01T07:23:01;17.60;;;5.78;;
72284;SDS011;60220;53.552;10.092;2023-03-01T07:25:30;13.02;;;7.22;;
72284;SDS011;60220;53.552;10.092;2023-03-01T07:27:57;15.05;;;5.80;;
72284;SDS011;60220;53.552;10.092;2023-03-01T07:30:24;23.15;;;5.63;;
72284;SDS011;60220;53.552;10.092;2023-03-01T07:32:54;11.95;;;5.95;;
72284;SDS011;60220;53.552;10.092;2023-03-01T07:35:21;19.75;;;5.68;;
72284;SDS011;60220;53.552;10.092;2023-03-01T07:37:49;22.17;;;6.95;;
72284;SDS011;60220;53.552;10.092;2023-03-01T07:40:15;14.90;;;6.10;;
72284;SDS011;60220;53.552;10.092;2023-03-01T07:42:44;12.73;;;5.63;;
72284;SDS011;60220;53.552;10.092;2023-03-01T07:45:11;10.77;;;6.05;;
72284;SDS011;60220;53.552;10.092;2023-03-01T07:47:39;12.82;;;6.15;;
72284;SDS011;60220;53.552;10.092;2023-03-01T07:50:08;21.80;;;7.97;;
72284;SDS011;60220;53.552;10.092;2023-03-01T07:52:35;16.65;;;8.07;;
72284;SDS011;60220;53.552;10.092;2023-03-01T07:55:02;23.20;;;8.77;;
72284;SDS011;60220;53.552;10.092;2023-03-01T07:57:29;16.90;;;6.38;;
72284;SDS011;60220;53.552;10.092;2023-03-01T07:59:56;12.90;;;5.35;;
72284;SDS011;60220;53.552;10.092;2023-03-01T08:02:23;12.07;;;6.25;;
72284;SDS011;60220;53.552;10.092;2023-03-01T08:04:52;14.68;;;7.30;;
72284;SDS011;60220;53.552;10.092;2023-03-01T08:07:22;20.10;;;6.88;;
72284;SDS011;60220;53.552;10.092;2023-03-01T08:09:50;21.20;;;6.57;;
72284;SDS011;60220;53.552;10.092;2023-03-01T08:12:17;25.67;;;11.38;;
72284;SDS011;60220;53.552;10.092;2023-03-01T08:14:44;21.63;;;7.53;;
72284;SDS011;60220;53.552;10.092;2023-03-01T08:17:12;13.68;;;5.78;;
72284;SDS011;60220;53.552;10.092;2023-03-01T08:19:39;13.43;;;6.28;;
72284;SDS011;60220;53.552;10.092;2023-03-01T08:22:08;14.88;;;6.07;;
72284;SDS011;60220;53.552;10.092;2023-03-01T08:24:37;15.25;;;6.28;;
72284;SDS011;60220;53.552;10.092;2023-03-01T08:27:04;12.15;;;5.57;;
72284;SDS011;60220;53.552;10.092;2023-03-01T08:29:31;11.52;;;5.75;;
72284;SDS011;60220;53.552;10.092;2023-03-01T08:31:58;12.20;;;5.65;;
72284;SDS011;60220;53.552;10.092;2023-03-01T08:34:25;16.20;;;6.47;;
72284;SDS011;60220;53.552;10.092;2023-03-01T08:36:52;16.15;;;6.45;;
72284;SDS011;60220;53.552;10.092;2023-03-01T08:39:19;14.90;;;6.50;;
72284;SDS011;60220;53.552;10.092;2023-03-01T08:41:47;11.95;;;6.30;;
72284;SDS011;60220;53.552;10.092;2023-03-01T08:44:15;19.73;;;6.53;;
72284;SDS011;60220;53.552;10.092;2023-03-01T08:46:42;19.08;;;7.25;;
72284;SDS011;60220;53.552;10.092;2023-03-01T08:49:11;15.43;;;6.22;;
72284;SDS011;60220;53.552;10.092;2023-03-01T08:51:39;14.13;;;6.43;;
72284;SDS011;60220;53.552;10.092;2023-03-01T08:54:09;10.50;;;5.50;;
72284;SDS011;60220;53.552;10.092;2023-03-01T08:56:39;13.77;;;5.57;;
72284;SDS011;60220;53.552;10.092;2023-03-01T08:59:08;11.70;;;6.50;;
72284;SDS011;60220;53.552;10.092;2023-03-01T09:01:35;14.95;;;6.43;;
72284;SDS011;60220;53.552;10.092;2023-03-01T09:04:02;10.88;;;6.18;;
72284;SDS011;60220;53.552;10.092;2023-03-01T09:06:29;16.00;;;6.72;;
72284;SDS011;60220;53.552;10.092;2023-03-01T09:09:00;13.48;;;7.28;;
72284;SDS011;60220;53.552;10.092;2023-03-01T09:11:30;14.10;;;6.32;;
72284;SDS011;60220;53.552;10.092;2023-03-01T09:13:56;16.00;;;8.00;;
72284;SDS011;60220;53.552;10.092;2023-03-01T09:16:24;18.65;;;8.32;;
72284;SDS011;60220;53.552;10.092;2023-03-01T09:18:51;16.95;;;9.05;;
72284;SDS011;60220;53.552;10.092;2023-03-01T09:21:20;16.05;;;7.45;;
72284;SDS011;60220;53.552;10.092;2023-03-01T09:23:49;23.38;;;10.85;;
72284;SDS011;60220;53.552;10.092;2023-03-01T09:26:17;15.55;;;7.68;;
72284;SDS011;60220;53.552;10.092;2023-03-01T09:28:47;15.77;;;7.97;;
72284;SDS011;60220;53.552;10.092;2023-03-01T09:31:15;15.93;;;7.20;;
72284;SDS011;60220;53.552;10.092;2023-03-01T09:33:46;24.67;;;8.32;;
72284;SDS011;60220;53.552;10.092;2023-03-01T09:36:15;16.95;;;8.27;;
72284;SDS011;60220;53.552;10.092;2023-03-01T09:38:42;15.10;;;7.70;;
72284;SDS011;60220;53.552;10.092;2023-03-01T09:41:10;12.27;;;6.90;;
72284;SDS011;60220;53.552;10.092;2023-03-01T09:43:47;12.27;;;7.03;;
72284;SDS011;60220;53.552;10.092;2023-03-01T09:46:19;15.68;;;8.10;;
72284;SDS011;60220;53.552;10.092;2023-03-01T09:48:50;13.48;;;7.60;;
72284;SDS011;60220;53.552;10.092;2023-03-01T09:51:19;16.15;;;7.32;;
72284;SDS011;60220;53.552;10.092;2023-03-01T09:53:55;17.13;;;8.80;;
72284;SDS011;60220;53.552;10.092;2023-03-01T09:56:27;16.48;;;8.55;;
72284;SDS011;60220;53.552;10.092;2023-03-01T09:59:02;18.05;;;8.25;;
72284;SDS011;60220;53.552;10.092;2023-03-01T10:01:38;19.92;;;8.65;;
72284;SDS011;60220;53.552;10.092;2023-03-01T10:04:26;16.70;;;8.40;;
72284;SDS011;60220;53.552;10.092;2023-03-01T10:07:03;18.67;;;9.98;;
72284;SDS011;60220;53.552;10.092;2023-03-01T10:09:40;34.83;;;19.27;;
72284;SDS011;60220;53.552;10.092;2023-03-01T10:12:09;13.95;;;7.75;;
72284;SDS011;60220;53.552;10.092;2023-03-01T10:14:42;13.75;;;7.78;;
72284;SDS011;60220;53.552;10.092;2023-03-01T10:17:21;13.93;;;8.35;;
72284;SDS011;60220;53.552;10.092;2023-03-01T10:19:55;17.27;;;7.15;;
72284;SDS011;60220;53.552;10.092;2023-03-01T10:22:32;15.20;;;8.23;;
72284;SDS011;60220;53.552;10.092;2023-03-01T10:25:02;15.18;;;7.35;;
72284;SDS011;60220;53.552;10.092;2023-03-01T10:27:33;13.32;;;8.07;;
72284;SDS011;60220;53.552;10.092;2023-03-01T10:30:09;17.05;;;7.53;;
72284;SDS011;60220;53.552;10.092;2023-03-01T10:32:42;14.07;;;7.30;;
72284;SDS011;60220;53.552;10.092;2023-03-01T10:35:17;13.95;;;7.97;;
72284;SDS011;60220;53.552;10.092;2023-03-01T10:37:56;13.73;;;8.15;;
72284;SDS011;60220;53.552;10.092;2023-03-01T10:40:24;14.00;;;7.85;;
72284;SDS011;60220;53.552;10.092;2023-03-01T10:42:53;15.35;;;7.82;;
72284;SDS011;60220;53.552;10.092;2023-03-01T10:45:29;15.50;;;7.57;;
72284;SDS011;60220;53.552;10.092;2023-03-01T10:48:11;16.40;;;9.15;;
72284;SDS011;60220;53.552;10.092;2023-03-01T10:50:43;14.82;;;7.75;;
72284;SDS011;60220;53.552;10.092;2023-03-01T10:53:19;15.43;;;8.05;;
72284;SDS011;60220;53.552;10.092;2023-03-01T10:56:02;15.80;;;8.70;;
72284;SDS011;60220;53.552;10.092;2023-03-01T10:58:30;16.70;;;8.93;;
72284;SDS011;60220;53.552;10.092;2023-03-01T11:00:59;16.02;;;9.40;;
72284;SDS011;60220;53.552;10.092;2023-03-01T11:03:27;30.92;;;14.32;;
72284;SDS011;60220;53.552;10.092;2023-03-01T11:06:04;12.75;;;6.68;;
72284;SDS011;60220;53.552;10.092;2023-03-01T11:08:46;11.70;;;7.05;;
72284;SDS011;60220;53.552;10.092;2023-03-01T11:11:23;11.43;;;6.15;;
72284;SDS011;60220;53.552;10.092;2023-03-01T11:13:57;13.45;;;5.78;;
72284;SDS011;60220;53.552;10.092;2023-03-01T11:16:30;15.23;;;7.03;;
72284;SDS011;60220;53.552;10.092;2023-03-01T11:19:00;11.38;;;7.30;;
72284;SDS011;60220;53.552;10.092;2023-03-01T11:21:42;18.20;;;6.88;;
72284;SDS011;60220;53.552;10.092;2023-03-01T11:24:14;12.80;;;6.68;;
72284;SDS011;60220;53.552;10.092;2023-03-01T11:26:47;11.02;;;5.90;;
72284;SDS011;60220;53.552;10.092;2023-03-01T11:29:21;14.73;;;6.65;;
72284;SDS011;60220;53.552;10.092;2023-03-01T11:31:56;12.25;;;7.32;;
72284;SDS011;60220;53.552;10.092;2023-03-01T11:34:34;18.40;;;6.95;;
72284;SDS011;60220;53.552;10.092;2023-03-01T11:37:15;9.90;;;5.28;;
72284;SDS011;60220;53.552;10.092;2023-03-01T11:39:52;11.35;;;6.32;;
72284;SDS011;60220;53.552;10.092;2023-03-01T11:42:25;14.95;;;9.35;;
72284;SDS011;60220;53.552;10.092;2023-03-01T11:45:02;22.02;;;13.60;;
72284;SDS011;60220;53.552;10.092;2023-03-01T11:47:43;14.50;;;6.82;;
72284;SDS011;60220;53.552;10.092;2023-03-01T11:50:20;12.75;;;6.68;;
72284;SDS011;60220;53.552;10.092;2023-03-01T11:53:13;13.40;;;6.72;;
72284;SDS011;60220;53.552;10.092;2023-03-01T11:55:57;10.68;;;5.60;;
72284;SDS011;60220;53.552;10.092;2023-03-01T11:58:35;10.02;;;5.30;;
72284;SDS011;60220;53.552;10.092;2023-03-01T12:01:40;12.18;;;6.25;;
72284;SDS011;60220;53.552;10.092;2023-03-01T12:07:17;17.63;;;7.22;;
72284;SDS011;60220;53.552;10.092;2023-03-01T12:10:10;13.05;;;7.60;;
72284;SDS011;60220;53.552;10.092;2023-03-01T12:12:48;19.50;;;10.30;;
72284;SDS011;60220;53.552;10.092;2023-03-01T12:19:00;17.42;;;9.63;;
72284;SDS011;60220;53.552;10.092;2023-03-01T12:21:42;17.05;;;8.55;;
72284;SDS011;60220;53.552;10.092;2023-03-01T12:24:24;22.75;;;11.48;;
72284;SDS011;60220;53.552;10.092;2023-03-01T12:27:17;22.48;;;11.07;;
72284;SDS011;60220;53.552;10.092;2023-03-01T12:30:05;12.43;;;6.97;;
72284;SDS011;60220;53.552;10.092;2023-03-01T12:32:47;12.48;;;7.35;;
72284;SDS011;60220;53.552;10.092;2023-03-01T12:35:29;12.68;;;7.47;;
72284;SDS011;60220;53.552;10.092;2023-03-01T12:38:10;12.48;;;7.03;;
72284;SDS011;60220;53.552;10.092;2023-03-01T12:41:00;10.98;;;7.60;;
72284;SDS011;60220;53.552;10.092;2023-03-01T12:43:57;13.20;;;6.93;;
72284;SDS011;60220;53.552;10.092;2023-03-01T12:46:35;11.40;;;6.43;;
72284;SDS011;60220;53.552;10.092;2023-03-01T12:49:18;10.98;;;6.47;;
72284;SDS011;60220;53.552;10.092;2023-03-01T12:51:50;10.23;;;6.03;;
72284;SDS011;60220;53.552;10.092;2023-03-01T12:54:23;16.13;;;6.55;;
72284;SDS011;60220;53.552;10.092;2023-03-01T12:56:54;10.85;;;6.45;;
72284;SDS011;60220;53.552;10.092;2023-03-01T12:59:26;11.90;;;5.63;;
72284;SDS011;60220;53.552;10.092;2023-03-01T13:02:02;8.90;;;5.05;;
72284;SDS011;60220;53.552;10.092;2023-03-01T13:04:41;10.15;;;5.35;;
72284;SDS011;60220;53.552;10.092;2023-03-01T13:07:30;9.32;;;5.35;;
72284;SDS011;60220;53.552;10.092;2023-03-01T13:10:10;9.52;;;4.55;;
72284;SDS011;60220;53.552;10.092;2023-03-01T13:12:50;15.00;;;4.82;;
72284;SDS011;60220;53.552;10.092;2023-03-01T13:15:26;6.88;;;4.60;;
72284;SDS011;60220;53.552;10.092;2023-03-01T13:21:00;10.07;;;5.05;;
72284;SDS011;60220;53.552;10.092;2023-03-01T13:23:39;10.40;;;5.00;;
72284;SDS011;60220;53.552;10.092;2023-03-01T13:26:14;9.93;;;6.20;;
72284;SDS011;60220;53.552;10.092;2023-03-01T13:28:47;14.80;;;8.27;;
72284;SDS011;60220;53.552;10.092;2023-03-01T13:37:34;6.65;;;4.40;;
72284;SDS011;60220;53.552;10.092;2023-03-01T13:40:07;11.23;;;5.27;;
72284;SDS011;60220;53.552;10.092;2023-03-01T13:46:02;9.60;;;4.63;;
72284;SDS011;60220;53.552;10.092;2023-03-01T13:48:36;9.10;;;4.80;;
72284;SDS011;60220;53.552;10.092;2023-03-01T13:51:09;10.45;;;5.05;;
72284;SDS011;60220;53.552;10.092;2023-03-01T13:53:41;8.73;;;5.07;;
72284;SDS011;60220;53.552;10.092;2023-03-01T13:56:13;10.60;;;5.20;;
72284;SDS011;60220;53.552;10.092;2023-03-01T13:58:49;9.77;;;4.50;;
72284;SDS011;60220;53.552;10.092;2023-03-01T14:01:23;8.23;;;4.78;;
72284;SDS011;60220;53.552;10.092;2023-03-01T14:03:51;9.18;;;3.53;;
72284;SDS011;60220;53.552;10.092;2023-03-01T14:06:21;7.25;;;3.85;;
72284;SDS011;60220;53.552;10.092;2023-03-01T14:08:50;11.63;;;4.47;;
72284;SDS011;60220;53.552;10.092;2023-03-01T14:14:40;6.65;;;4.18;;
72284;SDS011;60220;53.552;10.092;2023-03-01T14:17:18;8.68;;;4.00;;
72284;SDS011;60220;53.552;10.092;2023-03-01T14:19:56;5.18;;;3.35;;
72284;SDS011;60220;53.552;10.092;2023-03-01T14:22:27;6.82;;;3.92;;
72284;SDS011;60220;53.552;10.092;2023-03-01T14:24:55;7.32;;;4.25;;
72284;SDS011;60220;53.552;10.092;2023-03-01T14:27:25;7.97;;;4.20;;
72284;SDS011;60220;53.552;10.092;2023-03-01T14:29:57;8.15;;;4.63;;
72284;SDS011;60220;53.552;10.092;2023-03-01T14:32:25;6.80;;;3.13;;
72284;SDS011;60220;53.552;10.092;2023-03-01T14:34:53;7.57;;;3.15;;
72284;SDS011;60220;53.552;10.092;2023-03-01T14:37:21;6.55;;;3.35;;
72284;SDS011;60220;53.552;10.092;2023-03-01T14:39:52;10.40;;;3.58;;
72284;SDS011;60220;53.552;10.092;2023-03-01T14:42:19;5.30;;;2.60;;
72284;SDS011;60220;53.552;10.092;2023-03-01T14:44:51;10.27;;;3.10;;
72284;SDS011;60220;53.552;10.092;2023-03-01T14:47:23;5.00;;;2.55;;
72284;SDS011;60220;53.552;10.092;2023-03-01T14:49:54;5.90;;;3.13;;
72284;SDS011;60220;53.552;10.092;2023-03-01T14:52:25;9.02;;;3.15;;
72284;SDS011;60220;53.552;10.092;2023-03-01T14:55:01;5.22;;;3.00;;
72284;SDS011;60220;53.552;10.092;2023-03-01T14:57:29;4.20;;;2.42;;
72284;SDS011;60220;53.552;10.092;2023-03-01T14:59:59;8.38;;;3.67;;
72284;SDS011;60220;53.552;10.092;2023-03-01T15:02:30;6.60;;;3.70;;
72284;SDS011;60220;53.552;10.092;2023-03-01T15:04:58;6.80;;;3.17;;
72284;SDS011;60220;53.552;10.092;2023-03-01T15:07:30;6.65;;;3.47;;